| time (UTC) | temp F | wind direction | speed MPH | gust MPH | rain 1hr in | rain 24hr in | rain mn in | humidity % | barometer mb |
| 20260510142415 | 62 | 211 | 1.0 | 2.0 | 0.00 | 0.01 | 0.01 | 82 | 1013.1 |
| 20260510141912 | 62 | 188 | 1.0 | 3.0 | 0.00 | 0.01 | 0.01 | 82 | 1013.4 |
| 20260510141409 | 61 | 200 | 0.0 | 1.0 | 0.00 | 0.01 | 0.01 | 83 | 1013.1 |
| 20260510140906 | 60 | 216 | 1.0 | 2.0 | 0.00 | 0.01 | 0.01 | 81 | 1013.4 |
| 20260510140402 | 61 | 238 | 0.0 | 0.0 | 0.00 | 0.01 | 0.01 | 84 | 1013.0 |
| 20260510135900 | 60 | 197 | 0.0 | 0.0 | 0.00 | 0.01 | 0.01 | 84 | 1013.0 |
| 20260510135357 | 60 | 207 | 0.0 | 0.0 | 0.00 | 0.01 | 0.01 | 85 | 1012.8 |
| 20260510134854 | 59 | 170 | 0.0 | 0.0 | 0.00 | 0.01 | 0.01 | 86 | 1012.9 |
| 20260510134351 | 59 | 211 | 5.0 | 6.0 | 0.00 | 0.01 | 0.01 | 86 | 1012.9 |
| 20260510133847 | 59 | 288 | 0.0 | 1.0 | 0.00 | 0.01 | 0.01 | 90 | 1012.8 |
| 20260510133343 | 58 | 176 | 0.0 | 1.0 | 0.00 | 0.01 | 0.01 | 90 | 1013.0 |
| 20260510132839 | 58 | 209 | 3.0 | 3.0 | 0.00 | 0.01 | 0.01 | 91 | 1013.1 |
| 20260510132337 | 57 | 267 | 0.0 | 0.0 | 0.00 | 0.01 | 0.01 | 94 | 1013.1 |
| 20260510131834 | 56 | 191 | 1.0 | 2.0 | 0.00 | 0.01 | 0.01 | 96 | 1013.0 |
| 20260510131332 | 56 | 253 | 0.0 | 0.0 | 0.00 | 0.01 | 0.01 | 96 | 1013.1 |
| 20260510130828 | 56 | 196 | 0.0 | 0.0 | 0.00 | 0.01 | 0.01 | 96 | 1013.2 |
| 20260510130325 | 56 | 202 | 0.0 | 0.0 | 0.00 | 0.01 | 0.01 | 96 | 1013.2 |
| 20260510125821 | 56 | 270 | 0.0 | 0.0 | 0.00 | 0.01 | 0.01 | 98 | 1013.1 |
| 20260510125317 | 55 | 209 | 0.0 | 0.0 | 0.00 | 0.01 | 0.01 | 98 | 1013.4 |
| 20260510124815 | 55 | 221 | 0.0 | 0.0 | 0.00 | 0.01 | 0.01 | 98 | 1013.4 |
| 20260510124312 | 54 | 267 | 0.0 | 0.0 | 0.00 | 0.01 | 0.01 | 98 | 1013.1 |
| 20260510123807 | 54 | 308 | 0.0 | 0.0 | 0.00 | 0.01 | 0.01 | 98 | 1012.9 |
| 20260510123303 | 53 | 168 | 0.0 | 0.0 | 0.00 | 0.01 | 0.01 | 98 | 1012.9 |
| 20260510122759 | 53 | 294 | 0.0 | 0.0 | 0.00 | 0.01 | 0.01 | 98 | 1012.8 |
| 20260510122255 | 53 | 162 | 0.0 | 0.0 | 0.00 | 0.01 | 0.01 | 98 | 1012.6 |
| 20260510121752 | 53 | 203 | 0.0 | 0.0 | 0.00 | 0.01 | 0.01 | 99 | 1012.5 |
| 20260510121250 | 52 | 149 | 0.0 | 0.0 | 0.00 | 0.01 | 0.01 | 98 | 1012.4 |
| 20260510120747 | 52 | 66 | 0.0 | 0.0 | 0.00 | 0.01 | 0.01 | 98 | 1012.5 |
| 20260510120243 | 52 | 50 | 0.0 | 0.0 | 0.00 | 0.01 | 0.01 | 98 | 1012.6 |
| 20260510115739 | 51 | 278 | 0.0 | 0.0 | 0.00 | 0.01 | 0.01 | 98 | 1012.5 |
| 20260510115237 | 51 | 131 | 0.0 | 0.0 | 0.00 | 0.01 | 0.01 | 98 | 1012.4 |
| 20260510114732 | 51 | 158 | 0.0 | 0.0 | 0.00 | 0.01 | 0.01 | 98 | 1012.3 |
| 20260510114230 | 51 | 132 | 0.0 | 0.0 | 0.00 | 0.01 | 0.01 | 98 | 1012.4 |
| 20260510113725 | 51 | 258 | 0.0 | 0.0 | 0.00 | 0.01 | 0.01 | 98 | 1012.2 |
| 20260510113222 | 51 | 41 | 0.0 | 0.0 | 0.00 | 0.01 | 0.01 | 98 | 1012.2 |
| 20260510112718 | 50 | 21 | 0.0 | 0.0 | 0.00 | 0.01 | 0.01 | 98 | 1012.0 |
| 20260510112215 | 50 | 69 | 0.0 | 0.0 | 0.00 | 0.01 | 0.01 | 98 | 1011.9 |
| 20260510111711 | 50 | 76 | 0.0 | 0.0 | 0.00 | 0.01 | 0.01 | 98 | 1011.9 |
| 20260510111209 | 50 | 58 | 0.0 | 0.0 | 0.00 | 0.01 | 0.01 | 98 | 1012.0 |
| 20260510110708 | 50 | 124 | 0.0 | 0.0 | 0.00 | 0.01 | 0.01 | 98 | 1011.9 |
| 20260510110207 | 50 | 128 | 0.0 | 0.0 | 0.00 | 0.01 | 0.01 | 98 | 1012.1 |
| 20260510105706 | 50 | 129 | 0.0 | 0.0 | 0.00 | 0.01 | 0.01 | 98 | 1012.0 |
| 20260510105206 | 49 | 129 | 0.0 | 0.0 | 0.00 | 0.01 | 0.01 | 98 | 1012.0 |
| 20260510104703 | 49 | 131 | 0.0 | 0.0 | 0.00 | 0.01 | 0.01 | 98 | 1012.0 |
| 20260510104201 | 49 | 126 | 0.0 | 0.0 | 0.00 | 0.01 | 0.01 | 98 | 1011.8 |
| 20260510103657 | 49 | 127 | 0.0 | 0.0 | 0.00 | 0.01 | 0.01 | 98 | 1011.7 |
| 20260510103154 | 50 | 144 | 0.0 | 0.0 | 0.00 | 0.01 | 0.01 | 98 | 1011.9 |
| 20260510102654 | 49 | 69 | 0.0 | 0.0 | 0.00 | 0.01 | 0.01 | 98 | 1011.8 |
| 20260510102150 | 49 | 69 | 0.0 | 0.0 | 0.00 | 0.01 | 0.01 | 98 | 1011.6 |
| 20260510101648 | 49 | 47 | 0.0 | 0.0 | 0.00 | 0.01 | 0.01 | 98 | 1011.5 |
| 20260510101146 | 49 | 56 | 0.0 | 0.0 | 0.00 | 0.01 | 0.01 | 98 | 1011.6 |
| 20260510100642 | 48 | 40 | 0.0 | 0.0 | 0.00 | 0.01 | 0.01 | 98 | 1011.4 |
| 20260510100139 | 49 | 86 | 0.0 | 0.0 | 0.00 | 0.01 | 0.01 | 98 | 1011.6 |
| 20260510095635 | 49 | 68 | 0.0 | 0.0 | 0.00 | 0.01 | 0.01 | 98 | 1011.6 |
| 20260510095130 | 49 | 85 | 0.0 | 0.0 | 0.00 | 0.01 | 0.01 | 98 | 1011.7 |
| 20260510094629 | 49 | 57 | 0.0 | 0.0 | 0.00 | 0.01 | 0.01 | 98 | 1011.5 |
| 20260510094125 | 49 | 72 | 0.0 | 0.0 | 0.00 | 0.01 | 0.01 | 98 | 1011.5 |
| 20260510093621 | 49 | 70 | 0.0 | 0.0 | 0.00 | 0.01 | 0.01 | 98 | 1011.6 |
| 20260510093118 | 49 | 80 | 0.0 | 0.0 | 0.00 | 0.01 | 0.01 | 98 | 1011.5 |
| 20260510092615 | 49 | 80 | 0.0 | 0.0 | 0.00 | 0.01 | 0.01 | 98 | 1011.4 |
| 20260510092115 | 49 | 93 | 0.0 | 0.0 | 0.00 | 0.01 | 0.01 | 98 | 1011.7 |
| 20260510091612 | 49 | 95 | 0.0 | 0.0 | 0.00 | 0.01 | 0.01 | 98 | 1011.5 |
| 20260510091108 | 49 | 72 | 0.0 | 0.0 | 0.00 | 0.01 | 0.01 | 98 | 1011.6 |
| 20260510090605 | 49 | 62 | 0.0 | 0.0 | 0.00 | 0.01 | 0.01 | 98 | 1011.6 |
| 20260510090101 | 49 | 92 | 0.0 | 0.0 | 0.00 | 0.01 | 0.01 | 98 | 1011.6 |
| 20260510085555 | 49 | 102 | 0.0 | 0.0 | 0.00 | 0.01 | 0.01 | 98 | 1011.7 |
| 20260510085052 | 49 | 108 | 0.0 | 0.0 | 0.00 | 0.01 | 0.01 | 98 | 1011.9 |
| 20260510084548 | 49 | 104 | 0.0 | 0.0 | 0.00 | 0.01 | 0.01 | 98 | 1011.8 |
| 20260510084045 | 49 | 87 | 0.0 | 0.0 | 0.00 | 0.01 | 0.01 | 98 | 1011.9 |
| 20260510083542 | 49 | 106 | 0.0 | 0.0 | 0.00 | 0.01 | 0.01 | 98 | 1011.9 |
| 20260510083038 | 49 | 116 | 0.0 | 0.0 | 0.00 | 0.01 | 0.01 | 98 | 1012.2 |
| 20260510082535 | 49 | 119 | 0.0 | 0.0 | 0.00 | 0.01 | 0.01 | 98 | 1011.8 |
| 20260510082030 | 49 | 125 | 0.0 | 0.0 | 0.00 | 0.01 | 0.01 | 98 | 1012.1 |
| 20260510081526 | 49 | 119 | 0.0 | 0.0 | 0.00 | 0.01 | 0.01 | 98 | 1012.0 |
| 20260510081022 | 49 | 96 | 0.0 | 0.0 | 0.00 | 0.01 | 0.01 | 98 | 1012.2 |
| 20260510080520 | 49 | 126 | 0.0 | 0.0 | 0.00 | 0.01 | 0.01 | 98 | 1012.4 |
| 20260510080018 | 49 | 115 | 0.0 | 0.0 | 0.00 | 0.01 | 0.01 | 98 | 1012.0 |
| 20260510075515 | 49 | 60 | 0.0 | 0.0 | 0.00 | 0.01 | 0.01 | 98 | 1012.0 |
| 20260510075012 | 49 | 32 | 0.0 | 0.0 | 0.00 | 0.01 | 0.01 | 98 | 1012.2 |
| 20260510074510 | 49 | 55 | 0.0 | 0.0 | 0.00 | 0.01 | 0.01 | 98 | 1012.1 |
| 20260510074005 | 49 | 5 | 0.0 | 0.0 | 0.00 | 0.01 | 0.01 | 98 | 1011.8 |
| 20260510073501 | 49 | 19 | 2.0 | 2.0 | 0.00 | 0.01 | 0.01 | 98 | 1011.9 |
| 20260510072957 | 49 | 68 | 0.0 | 0.0 | 0.00 | 0.01 | 0.01 | 98 | 1011.3 |
| 20260510072454 | 48 | 66 | 0.0 | 0.0 | 0.00 | 0.01 | 0.01 | 97 | 1011.2 |
| 20260510071950 | 48 | 101 | 0.0 | 0.0 | 0.00 | 0.01 | 0.01 | 97 | 1011.1 |
| 20260510071446 | 48 | 106 | 0.0 | 0.0 | 0.00 | 0.01 | 0.01 | 97 | 1011.3 |
| 20260510070944 | 49 | 93 | 0.0 | 0.0 | 0.00 | 0.01 | 0.01 | 97 | 1011.2 |
| 20260510070442 | 48 | 95 | 0.0 | 0.0 | 0.00 | 0.01 | 0.01 | 97 | 1011.1 |
| 20260510065937 | 49 | 61 | 0.0 | 0.0 | 0.00 | 0.01 | 0.01 | 97 | 1011.2 |
| 20260510065434 | 49 | 74 | 0.0 | 0.0 | 0.00 | 0.01 | 0.01 | 97 | 1011.4 |
| 20260510064930 | 49 | 100 | 0.0 | 0.0 | 0.00 | 0.01 | 0.01 | 97 | 1011.4 |
| 20260510064428 | 49 | 108 | 0.0 | 0.0 | 0.00 | 0.01 | 0.01 | 97 | 1011.5 |
| 20260510063925 | 49 | 114 | 0.0 | 0.0 | 0.00 | 0.01 | 0.01 | 97 | 1011.4 |
| 20260510063420 | 49 | 108 | 0.0 | 0.0 | 0.00 | 0.01 | 0.01 | 97 | 1011.4 |
| 20260510062919 | 49 | 120 | 0.0 | 0.0 | 0.00 | 0.01 | 0.01 | 97 | 1011.6 |
| 20260510062414 | 49 | 93 | 0.0 | 0.0 | 0.00 | 0.01 | 0.01 | 97 | 1011.7 |
| 20260510061909 | 49 | 292 | 0.0 | 0.0 | 0.00 | 0.01 | 0.01 | 97 | 1011.8 |
| 20260510061406 | 49 | 336 | 0.0 | 0.0 | 0.00 | 0.01 | 0.01 | 97 | 1011.7 |
| 20260510060902 | 49 | 40 | 0.0 | 0.0 | 0.00 | 0.01 | 0.01 | 97 | 1011.5 |
| 20260510060359 | 49 | 313 | 0.0 | 0.0 | 0.00 | 0.01 | 0.01 | 97 | 1011.7 |
| 20260510055855 | 49 | 251 | 0.0 | 0.0 | 0.00 | 0.01 | 0.01 | 97 | 1011.6 |
| 20260510055356 | 49 | 343 | 0.0 | 0.0 | 0.00 | 0.01 | 0.01 | 97 | 1011.4 |
| 20260510054854 | 49 | 28 | 0.0 | 0.0 | 0.00 | 0.01 | 0.01 | 97 | 1011.3 |
| 20260510054350 | 49 | 301 | 0.0 | 0.0 | 0.07 | 0.01 | 0.01 | 97 | 1011.3 |
| 20260510053845 | 50 | 300 | 0.0 | 0.0 | 0.07 | 0.01 | 0.01 | 97 | 1011.3 |
| 20260510053341 | 50 | 317 | 0.0 | 0.0 | 0.00 | 0.00 | 0.00 | 97 | 1011.3 |
| 20260510052837 | 50 | 138 | 0.0 | 0.0 | 0.00 | 0.00 | 0.00 | 97 | 1011.2 |
| 20260510052333 | 50 | 137 | 0.0 | 0.0 | 0.00 | 0.00 | 0.00 | 97 | 1011.1 |
| 20260510051830 | 50 | 135 | 0.0 | 0.0 | 0.00 | 0.00 | 0.00 | 97 | 1011.1 |
| 20260510051326 | 50 | 130 | 0.0 | 0.0 | 0.00 | 0.00 | 0.00 | 97 | 1011.2 |
| 20260510050823 | 50 | 147 | 0.0 | 0.0 | 0.00 | 0.00 | 0.00 | 96 | 1011.5 |
| 20260510050320 | 50 | 143 | 0.0 | 0.0 | 0.00 | 0.00 | 0.00 | 96 | 1011.3 |
| 20260510045817 | 50 | 132 | 0.0 | 0.0 | 0.00 | 0.00 | 0.00 | 96 | 1011.2 |
| 20260510045314 | 50 | 264 | 0.0 | 0.0 | 0.00 | 0.00 | 0.00 | 96 | 1011.1 |
| 20260510044811 | 50 | 134 | 0.0 | 0.0 | 0.00 | 0.00 | 0.00 | 96 | 1011.4 |
| 20260510044308 | 50 | 78 | 0.0 | 0.0 | 0.00 | 0.00 | 0.00 | 96 | 1011.3 |
| 20260510043804 | 50 | 70 | 0.0 | 0.0 | 0.00 | 0.00 | 0.00 | 96 | 1011.5 |
| 20260510043300 | 50 | 100 | 0.0 | 0.0 | 0.00 | 0.00 | 0.00 | 96 | 1011.3 |
| 20260510042758 | 50 | 120 | 0.0 | 0.0 | 0.00 | 0.00 | 0.00 | 96 | 1011.3 |
| 20260510042253 | 50 | 119 | 0.0 | 0.0 | 0.00 | 0.00 | 0.00 | 96 | 1011.4 |
| 20260510041750 | 50 | 118 | 0.0 | 0.0 | 0.00 | 0.00 | 0.00 | 96 | 1011.2 |
| 20260510041248 | 50 | 118 | 0.0 | 0.0 | 0.00 | 0.00 | 0.00 | 96 | 1011.6 |
| 20260510040745 | 50 | 119 | 0.0 | 0.0 | 0.00 | 0.00 | 0.00 | 96 | 1011.3 |
| 20260510040242 | 50 | 127 | 0.0 | 0.0 | 0.00 | 0.00 | 0.00 | 96 | 1011.4 |
| 20260510035737 | 50 | 132 | 0.0 | 0.0 | 0.00 | 0.31 | 0.31 | 96 | 1011.5 |
| 20260510035233 | 50 | 141 | 0.0 | 0.0 | 0.00 | 0.31 | 0.31 | 96 | 1011.5 |
| 20260510034729 | 50 | 152 | 0.0 | 0.0 | 0.00 | 0.31 | 0.31 | 96 | 1011.3 |
| 20260510034228 | 50 | 98 | 0.0 | 0.0 | 0.00 | 0.31 | 0.31 | 96 | 1011.1 |
| 20260510033722 | 50 | 97 | 0.0 | 0.0 | 0.00 | 0.31 | 0.31 | 96 | 1011.1 |
| 20260510033221 | 50 | 121 | 0.0 | 0.0 | 0.00 | 0.31 | 0.31 | 96 | 1011.1 |
| 20260510032717 | 50 | 123 | 0.0 | 0.0 | 0.00 | 0.31 | 0.31 | 96 | 1011.3 |
| 20260510032213 | 51 | 123 | 0.0 | 0.0 | 0.00 | 0.31 | 0.31 | 95 | 1011.0 |
| 20260510031707 | 51 | 106 | 0.0 | 0.0 | 0.00 | 0.31 | 0.31 | 95 | 1011.2 |
| 20260510031204 | 51 | 144 | 0.0 | 0.0 | 0.00 | 0.31 | 0.31 | 95 | 1011.1 |
| 20260510030658 | 51 | 134 | 0.0 | 0.0 | 0.00 | 0.31 | 0.31 | 96 | 1011.1 |
| 20260510030156 | 51 | 91 | 0.0 | 0.0 | 0.00 | 0.31 | 0.31 | 95 | 1011.2 |
| 20260510025653 | 51 | 129 | 0.0 | 0.0 | 0.00 | 0.31 | 0.31 | 95 | 1010.9 |
| 20260510025150 | 51 | 110 | 0.0 | 0.0 | 0.00 | 0.31 | 0.31 | 96 | 1010.9 |
| 20260510024647 | 51 | 138 | 0.0 | 0.0 | 0.00 | 0.31 | 0.31 | 95 | 1011.0 |
| 20260510024143 | 51 | 120 | 0.0 | 0.0 | 0.00 | 0.31 | 0.31 | 95 | 1011.2 |
| 20260510023639 | 51 | 139 | 0.0 | 0.0 | 0.00 | 0.31 | 0.31 | 95 | 1010.9 |
| 20260510023137 | 51 | 141 | 0.0 | 0.0 | 0.00 | 0.31 | 0.31 | 95 | 1010.9 |
| 20260510022636 | 51 | 123 | 0.0 | 0.0 | 0.00 | 0.31 | 0.31 | 95 | 1011.1 |
| 20260510022132 | 51 | 148 | 0.0 | 0.0 | 0.00 | 0.31 | 0.31 | 95 | 1011.0 |
| 20260510021622 | 51 | 190 | 0.0 | 0.0 | 0.00 | 0.31 | 0.31 | 95 | 1011.1 |
| 20260510021120 | 51 | 166 | 0.0 | 0.0 | 0.00 | 0.31 | 0.31 | 95 | 1011.2 |
| 20260510020613 | 51 | 135 | 0.0 | 0.0 | 0.00 | 0.31 | 0.31 | 95 | 1011.2 |
| 20260510020109 | 51 | 133 | 0.0 | 0.0 | 0.00 | 0.31 | 0.31 | 95 | 1011.0 |
| 20260510015605 | 51 | 106 | 0.0 | 0.0 | 0.00 | 0.31 | 0.31 | 95 | 1011.2 |
| 20260510015102 | 51 | 82 | 0.0 | 0.0 | 0.00 | 0.31 | 0.31 | 95 | 1011.1 |
| 20260510014557 | 51 | 83 | 0.0 | 0.0 | 0.00 | 0.31 | 0.31 | 95 | 1010.8 |
| 20260510014055 | 51 | 109 | 0.0 | 0.0 | 0.00 | 0.31 | 0.31 | 94 | 1011.1 |
| 20260510013549 | 51 | 133 | 0.0 | 0.0 | 0.00 | 0.31 | 0.31 | 94 | 1011.0 |
| 20260510013046 | 52 | 158 | 0.0 | 0.0 | 0.00 | 0.31 | 0.31 | 94 | 1011.1 |
| 20260510012539 | 52 | 160 | 0.0 | 0.0 | 0.00 | 0.31 | 0.31 | 94 | 1010.9 |
| 20260510012036 | 52 | 152 | 0.0 | 0.0 | 0.00 | 0.31 | 0.31 | 94 | 1010.8 |
| 20260510011536 | 52 | 120 | 0.0 | 0.0 | 0.00 | 0.31 | 0.31 | 94 | 1010.9 |
| 20260510011032 | 52 | 138 | 0.0 | 0.0 | 0.00 | 0.31 | 0.31 | 94 | 1011.0 |
| 20260510010529 | 52 | 144 | 0.0 | 0.0 | 0.00 | 0.31 | 0.31 | 94 | 1011.0 |
| 20260510010026 | 52 | 138 | 0.0 | 0.0 | 0.00 | 0.31 | 0.31 | 94 | 1010.8 |
| 20260510005521 | 52 | 112 | 0.0 | 0.0 | 0.00 | 0.31 | 0.31 | 94 | 1010.9 |
| 20260510005019 | 52 | 193 | 0.0 | 0.0 | 0.00 | 0.31 | 0.31 | 94 | 1010.5 |
| 20260510004516 | 52 | 149 | 0.0 | 0.0 | 0.00 | 0.31 | 0.31 | 94 | 1010.6 |
| 20260510004014 | 52 | 265 | 0.0 | 0.0 | 0.00 | 0.31 | 0.31 | 93 | 1010.5 |
| 20260510003510 | 52 | 129 | 0.0 | 0.0 | 0.00 | 0.31 | 0.31 | 93 | 1010.2 |
| 20260510003006 | 52 | 139 | 0.0 | 0.0 | 0.00 | 0.31 | 0.31 | 93 | 1010.3 |
| 20260510002502 | 52 | 153 | 0.0 | 0.0 | 0.00 | 0.31 | 0.31 | 93 | 1010.3 |
| 20260510001959 | 52 | 129 | 0.0 | 0.0 | 0.00 | 0.31 | 0.31 | 93 | 1010.1 |
| 20260510001456 | 53 | 130 | 0.0 | 0.0 | 0.00 | 0.31 | 0.31 | 92 | 1010.1 |
| 20260510000954 | 53 | 139 | 0.0 | 0.0 | 0.00 | 0.31 | 0.31 | 92 | 1010.2 |
| 20260510000449 | 53 | 134 | 0.0 | 0.0 | 0.00 | 0.31 | 0.31 | 92 | 1010.1 |
| 20260509235946 | 53 | 148 | 0.0 | 0.0 | 0.00 | 0.31 | 0.31 | 92 | 1010.4 |
| 20260509235443 | 53 | 152 | 0.0 | 0.0 | 0.00 | 0.31 | 0.31 | 91 | 1010.2 |
| 20260509234940 | 53 | 150 | 0.0 | 0.0 | 0.00 | 0.31 | 0.31 | 91 | 1010.5 |
| 20260509234436 | 54 | 170 | 0.0 | 0.0 | 0.00 | 0.31 | 0.31 | 91 | 1010.2 |
| 20260509233934 | 54 | 160 | 0.0 | 0.0 | 0.00 | 0.31 | 0.31 | 90 | 1010.1 |
| 20260509233432 | 55 | 145 | 0.0 | 0.0 | 0.00 | 0.31 | 0.31 | 90 | 1010.0 |
| 20260509232927 | 55 | 157 | 0.0 | 0.0 | 0.00 | 0.31 | 0.31 | 89 | 1010.0 |
| 20260509232425 | 55 | 172 | 0.0 | 0.0 | 0.00 | 0.31 | 0.31 | 88 | 1010.1 |
| 20260509231921 | 55 | 161 | 0.0 | 0.0 | 0.00 | 0.31 | 0.31 | 88 | 1009.9 |
| 20260509231418 | 56 | 174 | 0.0 | 0.0 | 0.00 | 0.31 | 0.31 | 87 | 1009.9 |
| 20260509230916 | 56 | 169 | 0.0 | 0.0 | 0.00 | 0.31 | 0.31 | 87 | 1009.9 |
| 20260509230412 | 56 | 153 | 0.0 | 0.0 | 0.00 | 0.31 | 0.31 | 88 | 1009.9 |
| 20260509225908 | 55 | 200 | 0.0 | 0.0 | 0.00 | 0.31 | 0.31 | 87 | 1009.8 |
| 20260509225405 | 56 | 153 | 0.0 | 0.0 | 0.00 | 0.31 | 0.31 | 87 | 1009.9 |
| 20260509224901 | 56 | 149 | 0.0 | 0.0 | 0.00 | 0.31 | 0.31 | 87 | 1009.9 |
| 20260509224357 | 56 | 166 | 0.0 | 0.0 | 0.00 | 0.31 | 0.31 | 88 | 1010.1 |
| 20260509223854 | 56 | 141 | 0.0 | 0.0 | 0.00 | 0.31 | 0.31 | 88 | 1010.1 |
| 20260509223351 | 56 | 205 | 0.0 | 0.0 | 0.00 | 0.31 | 0.31 | 88 | 1010.1 |
| 20260509222849 | 56 | 146 | 0.0 | 0.0 | 0.00 | 0.31 | 0.31 | 88 | 1010.0 |
| 20260509222348 | 56 | 143 | 0.0 | 0.0 | 0.00 | 0.31 | 0.31 | 88 | 1009.9 |
| 20260509221844 | 57 | 156 | 0.0 | 0.0 | 0.00 | 0.31 | 0.31 | 88 | 1010.0 |
| 20260509221342 | 57 | 210 | 0.0 | 0.0 | 0.00 | 0.31 | 0.31 | 88 | 1010.0 |
| 20260509220842 | 56 | 149 | 0.0 | 0.0 | 0.00 | 0.31 | 0.31 | 89 | 1010.0 |
| 20260509220339 | 56 | 151 | 0.0 | 0.0 | 0.00 | 0.31 | 0.31 | 89 | 1009.9 |
| 20260509215834 | 56 | 161 | 0.0 | 0.0 | 0.00 | 0.31 | 0.31 | 89 | 1009.9 |
| 20260509215331 | 56 | 144 | 0.0 | 0.0 | 0.00 | 0.31 | 0.31 | 90 | 1010.0 |
| 20260509214828 | 57 | 165 | 0.0 | 0.0 | 0.00 | 0.31 | 0.31 | 89 | 1010.1 |
| 20260509214325 | 56 | 155 | 0.0 | 0.0 | 0.00 | 0.31 | 0.31 | 90 | 1010.1 |
| 20260509213823 | 56 | 155 | 0.0 | 0.0 | 0.00 | 0.31 | 0.31 | 90 | 1010.2 |
| 20260509213318 | 56 | 135 | 0.0 | 0.0 | 0.00 | 0.31 | 0.31 | 91 | 1010.4 |
| 20260509212816 | 56 | 253 | 0.0 | 0.0 | 0.00 | 0.31 | 0.31 | 91 | 1010.2 |
| 20260509212313 | 56 | 177 | 0.0 | 0.0 | 0.00 | 0.31 | 0.31 | 91 | 1010.5 |
| 20260509211809 | 57 | 21 | 0.0 | 0.0 | 0.00 | 0.31 | 0.31 | 91 | 1010.2 |
| 20260509211305 | 57 | 66 | 0.0 | 0.0 | 0.00 | 0.31 | 0.31 | 93 | 1010.3 |
| 20260509210801 | 56 | 101 | 0.0 | 0.0 | 0.00 | 0.31 | 0.31 | 94 | 1010.4 |
| 20260509210259 | 55 | 102 | 0.0 | 0.0 | 0.00 | 0.31 | 0.31 | 95 | 1010.4 |
| 20260509205758 | 54 | 100 | 0.0 | 0.0 | 0.00 | 0.31 | 0.31 | 94 | 1010.3 |
| 20260509205253 | 54 | 140 | 0.0 | 0.0 | 0.00 | 0.31 | 0.31 | 93 | 1010.4 |
| 20260509204750 | 54 | 122 | 0.0 | 0.0 | 0.00 | 0.31 | 0.31 | 93 | 1010.2 |
| 20260509204246 | 54 | 117 | 0.0 | 0.0 | 0.00 | 0.31 | 0.31 | 93 | 1010.3 |
| 20260509203742 | 53 | 132 | 0.0 | 0.0 | 0.00 | 0.31 | 0.31 | 93 | 1010.4 |
| 20260509203241 | 54 | 122 | 0.0 | 0.0 | 0.05 | 0.31 | 0.31 | 94 | 1010.4 |
| 20260509202736 | 53 | 112 | 0.0 | 0.0 | 0.05 | 0.31 | 0.31 | 94 | 1010.3 |
| 20260509202232 | 53 | 102 | 0.0 | 0.0 | 0.00 | 0.30 | 0.30 | 93 | 1010.3 |
| 20260509201726 | 53 | 117 | 0.0 | 0.0 | 0.00 | 0.30 | 0.30 | 94 | 1010.5 |
| 20260509201223 | 53 | 138 | 0.0 | 0.0 | 0.00 | 0.30 | 0.30 | 93 | 1010.5 |
| 20260509200720 | 53 | 123 | 0.0 | 0.0 | 0.00 | 0.30 | 0.30 | 93 | 1010.5 |
| 20260509200215 | 53 | 145 | 0.0 | 0.0 | 0.00 | 0.30 | 0.30 | 94 | 1010.4 |
| 20260509195712 | 53 | 139 | 0.0 | 0.0 | 0.07 | 0.30 | 0.30 | 93 | 1010.8 |
| 20260509195207 | 53 | 72 | 0.0 | 0.0 | 0.07 | 0.30 | 0.30 | 93 | 1010.8 |
| 20260509194706 | 53 | 133 | 0.0 | 0.0 | 0.05 | 0.29 | 0.29 | 93 | 1010.9 |
| 20260509194203 | 52 | 85 | 0.0 | 0.0 | 0.12 | 0.29 | 0.29 | 93 | 1011.2 |
| 20260509193700 | 53 | 300 | 0.0 | 0.0 | 0.19 | 0.28 | 0.28 | 92 | 1011.2 |
| 20260509193155 | 52 | 303 | 0.0 | 0.0 | 0.19 | 0.27 | 0.27 | 92 | 1011.5 |
| 20260509192652 | 53 | 318 | 0.0 | 0.0 | 0.19 | 0.26 | 0.26 | 92 | 1011.4 |
| 20260509192147 | 53 | 238 | 0.0 | 0.0 | 0.12 | 0.25 | 0.25 | 92 | 1011.7 |
| 20260509191647 | 53 | 348 | 0.0 | 0.0 | 0.12 | 0.23 | 0.23 | 92 | 1011.6 |
| 20260509191144 | 53 | 299 | 0.0 | 0.0 | 0.05 | 0.22 | 0.22 | 92 | 1011.5 |
| 20260509190640 | 53 | 205 | 0.0 | 0.0 | 0.12 | 0.22 | 0.22 | 92 | 1011.6 |
| 20260509190137 | 53 | 219 | 0.0 | 0.0 | 0.12 | 0.21 | 0.21 | 92 | 1011.3 |
| 20260509185635 | 53 | 300 | 3.0 | 5.0 | 0.12 | 0.20 | 0.20 | 92 | 1011.5 |
| 20260509185131 | 53 | 269 | 0.0 | 0.0 | 0.07 | 0.19 | 0.19 | 92 | 1011.8 |
| 20260509184629 | 53 | 298 | 0.0 | 0.0 | 0.12 | 0.19 | 0.19 | 92 | 1011.6 |
| 20260509184126 | 54 | 341 | 0.0 | 0.0 | 0.12 | 0.18 | 0.18 | 92 | 1011.8 |
| 20260509183622 | 54 | 268 | 0.0 | 0.0 | 0.12 | 0.17 | 0.17 | 92 | 1011.8 |
| 20260509183117 | 53 | 286 | 0.0 | 0.0 | 0.05 | 0.16 | 0.16 | 92 | 1011.5 |
| 20260509182613 | 53 | 296 | 0.0 | 0.0 | 0.07 | 0.15 | 0.15 | 92 | 1011.6 |
| 20260509182110 | 54 | 34 | 0.0 | 0.0 | 0.05 | 0.14 | 0.14 | 92 | 1011.7 |
| 20260509181603 | 54 | 351 | 0.0 | 0.0 | 0.12 | 0.14 | 0.14 | 92 | 1011.5 |
| 20260509181100 | 54 | 1 | 0.0 | 0.0 | 0.07 | 0.13 | 0.13 | 92 | 1011.5 |
| 20260509180555 | 54 | 138 | 0.0 | 0.0 | 0.07 | 0.12 | 0.12 | 91 | 1011.3 |
| 20260509180053 | 54 | 119 | 0.0 | 0.0 | 0.19 | 0.12 | 0.12 | 91 | 1011.2 |
| 20260509175548 | 54 | 101 | 0.0 | 0.0 | 0.24 | 0.11 | 0.11 | 91 | 1011.5 |
| 20260509175046 | 54 | 135 | 0.0 | 0.0 | 0.17 | 0.09 | 0.09 | 90 | 1011.8 |
| 20260509174542 | 54 | 173 | 0.0 | 0.0 | 0.19 | 0.08 | 0.08 | 90 | 1011.8 |
| 20260509174037 | 54 | 182 | 0.0 | 0.0 | 0.19 | 0.06 | 0.06 | 89 | 1011.8 |
| 20260509173532 | 55 | 325 | 0.0 | 0.0 | 0.07 | 0.04 | 0.04 | 88 | 1012.0 |
| 20260509173029 | 55 | 261 | 0.0 | 0.0 | 0.05 | 0.03 | 0.03 | 87 | 1012.0 |
| 20260509172526 | 55 | 192 | 0.0 | 0.0 | 0.05 | 0.03 | 0.03 | 86 | 1012.0 |
| 20260509172021 | 55 | 244 | 0.0 | 0.0 | 0.07 | 0.02 | 0.02 | 85 | 1012.0 |
| 20260509171518 | 56 | 195 | 1.0 | 1.0 | 0.07 | 0.02 | 0.02 | 85 | 1011.8 |
| 20260509171015 | 56 | 194 | 1.0 | 7.0 | 0.00 | 0.01 | 0.01 | 84 | 1011.8 |
| 20260509170510 | 56 | 230 | 0.0 | 0.0 | 0.00 | 0.01 | 0.01 | 83 | 1011.6 |
| 20260509170006 | 57 | 269 | 2.0 | 5.0 | 0.00 | 0.01 | 0.01 | 83 | 1011.6 |
| 20260509165504 | 57 | 229 | 0.0 | 0.0 | 0.00 | 0.01 | 0.01 | 83 | 1011.6 |
| 20260509165000 | 57 | 197 | 0.0 | 0.0 | 0.00 | 0.01 | 0.01 | 82 | 1011.8 |
| 20260509164457 | 57 | 233 | 1.0 | 2.0 | 0.00 | 0.01 | 0.01 | 83 | 1011.8 |
| 20260509163952 | 57 | 222 | 1.0 | 2.0 | 0.00 | 0.01 | 0.01 | 83 | 1011.8 |
| 20260509163450 | 57 | 199 | 1.0 | 2.0 | 0.00 | 0.01 | 0.01 | 82 | 1011.8 |
| 20260509162949 | 57 | 318 | 0.0 | 1.0 | 0.00 | 0.01 | 0.01 | 82 | 1011.9 |
| 20260509162448 | 57 | 285 | 0.0 | 1.0 | 0.00 | 0.01 | 0.01 | 81 | 1011.9 |
| 20260509161944 | 57 | 199 | 0.0 | 1.0 | 0.00 | 0.01 | 0.01 | 83 | 1011.9 |
| 20260509161440 | 57 | 327 | 2.0 | 5.0 | 0.00 | 0.01 | 0.01 | 83 | 1011.9 |
| 20260509160936 | 57 | 262 | 0.0 | 0.0 | 0.00 | 0.01 | 0.01 | 84 | 1011.7 |
| 20260509160432 | 57 | 135 | 0.0 | 0.0 | 0.00 | 0.01 | 0.01 | 83 | 1011.9 |
| 20260509155927 | 57 | 217 | 0.0 | 0.0 | 0.00 | 0.01 | 0.01 | 82 | 1012.1 |
| 20260509155424 | 57 | 273 | 0.0 | 0.0 | 0.00 | 0.01 | 0.01 | 82 | 1012.0 |
| 20260509154920 | 57 | 179 | 0.0 | 0.0 | 0.00 | 0.01 | 0.01 | 82 | 1011.6 |
| 20260509154417 | 56 | 263 | 0.0 | 0.0 | 0.00 | 0.01 | 0.01 | 83 | 1012.0 |
| 20260509153914 | 56 | 191 | 0.0 | 0.0 | 0.00 | 0.01 | 0.01 | 85 | 1012.0 |
| 20260509153411 | 55 | 194 | 0.0 | 0.0 | 0.00 | 0.01 | 0.01 | 84 | 1012.2 |
| 20260509152908 | 56 | 202 | 0.0 | 0.0 | 0.00 | 0.01 | 0.01 | 84 | 1012.0 |
| 20260509152403 | 56 | 124 | 0.0 | 0.0 | 0.00 | 0.01 | 0.01 | 85 | 1012.0 |
| 20260509151901 | 56 | 254 | 0.0 | 0.0 | 0.00 | 0.01 | 0.01 | 84 | 1012.1 |
| 20260509151356 | 56 | 179 | 0.0 | 0.0 | 0.00 | 0.01 | 0.01 | 84 | 1012.0 |
| 20260509150855 | 56 | 46 | 0.0 | 0.0 | 0.00 | 0.01 | 0.01 | 85 | 1011.9 |
| 20260509150353 | 55 | 125 | 0.0 | 0.0 | 0.07 | 0.01 | 0.01 | 85 | 1012.0 |
| 20260509145850 | 55 | 216 | 0.0 | 0.0 | 0.07 | 0.01 | 0.01 | 84 | 1012.3 |
| 20260509145350 | 55 | 282 | 0.0 | 0.0 | 0.00 | 0.00 | 0.00 | 83 | 1012.1 |
| 20260509144846 | 55 | 297 | 0.0 | 0.0 | 0.00 | 0.00 | 0.00 | 83 | 1012.2 |
| 20260509144343 | 55 | 181 | 0.0 | 0.0 | 0.00 | 0.00 | 0.00 | 82 | 1012.4 |
| 20260509143840 | 55 | 190 | 0.0 | 0.0 | 0.00 | 0.00 | 0.00 | 82 | 1012.2 |
| 20260509143338 | 55 | 230 | 0.0 | 0.0 | 0.00 | 0.00 | 0.00 | 82 | 1012.1 |
| 20260509142834 | 55 | 177 | 0.0 | 0.0 | 0.00 | 0.00 | 0.00 | 82 | 1012.1 |